sensor_id;sensor_type;location;lat;lon;timestamp;pressure;altitude;pressure_sealevel;temperature;humidity
10348;BME280;5220;43.192;23.284;2023-04-16T00:01:01;96487.69;;;13.67;100.00
10348;BME280;5220;43.192;23.284;2023-04-16T00:03:28;96486.06;;;13.66;100.00
10348;BME280;5220;43.192;23.284;2023-04-16T00:05:56;96482.63;;;13.66;100.00
10348;BME280;5220;43.192;23.284;2023-04-16T00:08:23;96480.69;;;13.68;100.00
10348;BME280;5220;43.192;23.284;2023-04-16T00:10:51;96481.66;;;13.67;100.00
10348;BME280;5220;43.192;23.284;2023-04-16T00:13:18;96469.56;;;13.56;100.00
10348;BME280;5220;43.192;23.284;2023-04-16T00:15:44;96472.28;;;13.64;100.00
10348;BME280;5220;43.192;23.284;2023-04-16T00:18:11;96470.50;;;13.65;100.00
10348;BME280;5220;43.192;23.284;2023-04-16T00:20:38;96475.72;;;13.65;100.00
10348;BME280;5220;43.192;23.284;2023-04-16T00:23:06;96469.00;;;13.62;100.00
10348;BME280;5220;43.192;23.284;2023-04-16T00:25:32;96469.28;;;13.59;100.00
10348;BME280;5220;43.192;23.284;2023-04-16T00:27:59;96472.72;;;13.60;100.00
10348;BME280;5220;43.192;23.284;2023-04-16T00:30:26;96472.72;;;13.60;100.00
10348;BME280;5220;43.192;23.284;2023-04-16T00:32:52;96471.22;;;13.57;100.00
10348;BME280;5220;43.192;23.284;2023-04-16T00:35:19;96469.28;;;13.59;100.00
10348;BME280;5220;43.192;23.284;2023-04-16T00:37:46;96474.50;;;13.59;100.00
10348;BME280;5220;43.192;23.284;2023-04-16T00:40:14;96461.44;;;13.59;100.00
10348;BME280;5220;43.192;23.284;2023-04-16T00:42:40;96471.00;;;13.41;100.00
10348;BME280;5220;43.192;23.284;2023-04-16T00:45:08;96468.13;;;13.34;100.00
10348;BME280;5220;43.192;23.284;2023-04-16T00:47:36;96461.38;;;13.32;100.00
10348;BME280;5220;43.192;23.284;2023-04-16T00:50:03;96462.59;;;13.37;100.00
10348;BME280;5220;43.192;23.284;2023-04-16T00:52:30;96461.66;;;13.29;100.00
10348;BME280;5220;43.192;23.284;2023-04-16T00:54:58;96464.66;;;13.34;100.00
10348;BME280;5220;43.192;23.284;2023-04-16T00:57:26;96466.91;;;13.29;100.00
10348;BME280;5220;43.192;23.284;2023-04-16T00:59:53;96460.84;;;13.28;100.00
10348;BME280;5220;43.192;23.284;2023-04-16T01:02:20;96466.06;;;13.28;100.00
10348;BME280;5220;43.192;23.284;2023-04-16T01:04:46;96462.63;;;13.28;100.00
10348;BME280;5220;43.192;23.284;2023-04-16T01:07:13;96462.91;;;13.25;100.00
10348;BME280;5220;43.192;23.284;2023-04-16T01:09:40;96449.84;;;13.15;100.00
10348;BME280;5220;43.192;23.284;2023-04-16T01:12:06;96452.63;;;13.14;100.00
10348;BME280;5220;43.192;23.284;2023-04-16T01:14:35;96448.06;;;13.06;100.00
10348;BME280;5220;43.192;23.284;2023-04-16T01:17:02;96449.84;;;12.96;100.00
10348;BME280;5220;43.192;23.284;2023-04-16T01:19:29;96447.38;;;12.94;100.00
10348;BME280;5220;43.192;23.284;2023-04-16T01:21:58;96442.16;;;12.85;100.00
10348;BME280;5220;43.192;23.284;2023-04-16T01:24:24;96444.63;;;12.77;100.00
10348;BME280;5220;43.192;23.284;2023-04-16T01:26:51;96444.63;;;12.86;100.00
10348;BME280;5220;43.192;23.284;2023-04-16T01:29:18;96441.91;;;12.78;100.00
10348;BME280;5220;43.192;23.284;2023-04-16T01:31:44;96439.28;;;12.78;100.00
10348;BME280;5220;43.192;23.284;2023-04-16T01:34:11;96429.69;;;12.69;100.00
10348;BME280;5220;43.192;23.284;2023-04-16T01:36:38;96449.31;;;12.54;100.00
10348;BME280;5220;43.192;23.284;2023-04-16T01:39:06;96435.28;;;12.46;100.00
10348;BME280;5220;43.192;23.284;2023-04-16T01:41:36;96439.41;;;12.48;100.00
10348;BME280;5220;43.192;23.284;2023-04-16T01:44:03;96439.25;;;12.40;100.00
10348;BME280;5220;43.192;23.284;2023-04-16T01:46:31;96434.34;;;12.56;100.00
10348;BME280;5220;43.192;23.284;2023-04-16T01:48:58;96429.41;;;12.63;100.00
10348;BME280;5220;43.192;23.284;2023-04-16T01:51:25;96429.41;;;12.63;100.00
10348;BME280;5220;43.192;23.284;2023-04-16T01:53:52;96424.84;;;12.65;100.00
10348;BME280;5220;43.192;23.284;2023-04-16T01:56:20;96429.78;;;12.68;100.00
10348;BME280;5220;43.192;23.284;2023-04-16T01:58:47;96422.69;;;12.70;100.00
10348;BME280;5220;43.192;23.284;2023-04-16T02:01:14;96428.00;;;12.49;100.00
10348;BME280;5220;43.192;23.284;2023-04-16T02:03:41;96419.91;;;12.62;100.00
10348;BME280;5220;43.192;23.284;2023-04-16T02:06:07;96429.25;;;12.64;100.00
10348;BME280;5220;43.192;23.284;2023-04-16T02:08:34;96421.28;;;12.66;100.00
10348;BME280;5220;43.192;23.284;2023-04-16T02:11:01;96423.75;;;12.67;100.00
10348;BME280;5220;43.192;23.284;2023-04-16T02:13:29;96421.84;;;12.69;100.00
10348;BME280;5220;43.192;23.284;2023-04-16T02:15:56;96424.56;;;12.68;100.00
10348;BME280;5220;43.192;23.284;2023-04-16T02:18:22;96424.56;;;12.68;100.00
10348;BME280;5220;43.192;23.284;2023-04-16T02:20:49;96420.63;;;12.64;100.00
10348;BME280;5220;43.192;23.284;2023-04-16T02:23:16;96428.28;;;12.65;100.00
10348;BME280;5220;43.192;23.284;2023-04-16T02:25:44;96430.22;;;12.63;100.00
10348;BME280;5220;43.192;23.284;2023-04-16T02:28:12;96424.19;;;12.63;100.00
10348;BME280;5220;43.192;23.284;2023-04-16T02:30:41;96431.19;;;12.62;100.00
10348;BME280;5220;43.192;23.284;2023-04-16T02:33:09;96427.06;;;12.60;100.00
10348;BME280;5220;43.192;23.284;2023-04-16T02:35:37;96436.66;;;12.59;100.00
10348;BME280;5220;43.192;23.284;2023-04-16T02:38:05;96434.22;;;12.58;100.00
10348;BME280;5220;43.192;23.284;2023-04-16T02:40:31;96434.34;;;12.56;100.00
10348;BME280;5220;43.192;23.284;2023-04-16T02:42:58;96428.56;;;12.53;100.00
10348;BME280;5220;43.192;23.284;2023-04-16T02:45:25;96430.34;;;12.52;100.00
10348;BME280;5220;43.192;23.284;2023-04-16T02:47:53;96428.72;;;12.51;100.00
10348;BME280;5220;43.192;23.284;2023-04-16T02:50:19;96427.88;;;12.51;100.00
10348;BME280;5220;43.192;23.284;2023-04-16T02:52:46;96430.75;;;12.38;100.00
10348;BME280;5220;43.192;23.284;2023-04-16T02:55:13;96423.88;;;12.37;100.00
10348;BME280;5220;43.192;23.284;2023-04-16T02:57:40;96415.66;;;12.32;100.00
10348;BME280;5220;43.192;23.284;2023-04-16T03:00:07;96421.28;;;12.37;100.00
10348;BME280;5220;43.192;23.284;2023-04-16T03:02:34;96420.16;;;12.39;100.00
10348;BME280;5220;43.192;23.284;2023-04-16T03:05:03;96418.66;;;12.37;100.00
10348;BME280;5220;43.192;23.284;2023-04-16T03:07:29;96419.09;;;12.32;100.00
10348;BME280;5220;43.192;23.284;2023-04-16T03:09:56;96420.88;;;12.32;100.00
10348;BME280;5220;43.192;23.284;2023-04-16T03:12:23;96419.75;;;12.25;100.00
10348;BME280;5220;43.192;23.284;2023-04-16T03:14:50;96429.34;;;12.15;100.00
10348;BME280;5220;43.192;23.284;2023-04-16T03:17:17;96426.03;;;12.13;100.00
10348;BME280;5220;43.192;23.284;2023-04-16T03:19:43;96430.94;;;11.97;100.00
10348;BME280;5220;43.192;23.284;2023-04-16T03:22:11;96432.69;;;11.86;100.00
10348;BME280;5220;43.192;23.284;2023-04-16T03:24:38;96434.59;;;11.84;100.00
10348;BME280;5220;43.192;23.284;2023-04-16T03:27:05;96432.00;;;11.84;100.00
10348;BME280;5220;43.192;23.284;2023-04-16T03:29:31;96441.28;;;11.77;100.00
10348;BME280;5220;43.192;23.284;2023-04-16T03:31:58;96434.59;;;11.84;100.00
10348;BME280;5220;43.192;23.284;2023-04-16T03:34:25;96436.34;;;11.74;100.00
10348;BME280;5220;43.192;23.284;2023-04-16T03:36:52;96449.19;;;11.66;100.00
10348;BME280;5220;43.192;23.284;2023-04-16T03:39:20;96447.69;;;11.43;100.00
10348;BME280;5220;43.192;23.284;2023-04-16T03:41:46;96449.31;;;11.65;100.00
10348;BME280;5220;43.192;23.284;2023-04-16T03:44:13;96447.53;;;11.65;100.00
10348;BME280;5220;43.192;23.284;2023-04-16T03:46:40;96451.91;;;11.65;100.00
10348;BME280;5220;43.192;23.284;2023-04-16T03:49:06;96454.22;;;11.58;100.00
10348;BME280;5220;43.192;23.284;2023-04-16T03:51:33;96458.66;;;11.67;100.00
10348;BME280;5220;43.192;23.284;2023-04-16T03:54:00;96451.09;;;11.64;100.00
10348;BME280;5220;43.192;23.284;2023-04-16T03:56:28;96455.91;;;11.69;100.00
10348;BME280;5220;43.192;23.284;2023-04-16T03:58:54;96457.38;;;11.82;100.00
10348;BME280;5220;43.192;23.284;2023-04-16T04:01:21;96452.44;;;11.79;100.00
10348;BME280;5220;43.192;23.284;2023-04-16T04:03:48;96456.03;;;11.88;100.00
10348;BME280;5220;43.192;23.284;2023-04-16T04:06:15;96457.16;;;11.95;100.00
10348;BME280;5220;43.192;23.284;2023-04-16T04:08:41;96451.91;;;11.85;100.00
10348;BME280;5220;43.192;23.284;2023-04-16T04:11:08;96460.28;;;11.99;100.00
10348;BME280;5220;43.192;23.284;2023-04-16T04:13:36;96449.09;;;12.08;100.00
10348;BME280;5220;43.192;23.284;2023-04-16T04:16:04;96457.44;;;12.11;100.00
10348;BME280;5220;43.192;23.284;2023-04-16T04:18:31;96454.84;;;12.11;100.00
10348;BME280;5220;43.192;23.284;2023-04-16T04:20:57;96456.41;;;12.23;100.00
10348;BME280;5220;43.192;23.284;2023-04-16T04:23:24;96452.44;;;12.29;100.00
10348;BME280;5220;43.192;23.284;2023-04-16T04:25:51;96454.34;;;12.36;100.00
10348;BME280;5220;43.192;23.284;2023-04-16T04:28:17;96463.97;;;12.46;100.00
10348;BME280;5220;43.192;23.284;2023-04-16T04:30:45;96458.63;;;12.47;100.00
10348;BME280;5220;43.192;23.284;2023-04-16T04:33:12;96464.13;;;12.54;100.00
10348;BME280;5220;43.192;23.284;2023-04-16T04:35:39;96464.69;;;12.57;100.00
10348;BME280;5220;43.192;23.284;2023-04-16T04:38:05;96464.28;;;12.62;100.00
10348;BME280;5220;43.192;23.284;2023-04-16T04:40:32;96467.44;;;12.65;100.00
10348;BME280;5220;43.192;23.284;2023-04-16T04:42:59;96472.25;;;12.70;100.00
10348;BME280;5220;43.192;23.284;2023-04-16T04:45:25;96466.75;;;12.73;100.00
10348;BME280;5220;43.192;23.284;2023-04-16T04:47:53;96468.94;;;12.77;100.00
10348;BME280;5220;43.192;23.284;2023-04-16T04:50:20;96470.44;;;12.80;100.00
10348;BME280;5220;43.192;23.284;2023-04-16T04:52:47;96480.34;;;12.86;100.00
10348;BME280;5220;43.192;23.284;2023-04-16T04:55:14;96473.06;;;12.89;100.00
10348;BME280;5220;43.192;23.284;2023-04-16T04:57:40;96475.56;;;12.91;100.00
10348;BME280;5220;43.192;23.284;2023-04-16T05:00:08;96473.22;;;12.98;100.00
10348;BME280;5220;43.192;23.284;2023-04-16T05:02:35;96476.50;;;13.00;100.00
10348;BME280;5220;43.192;23.284;2023-04-16T05:05:04;96482.84;;;13.07;100.00
10348;BME280;5220;43.192;23.284;2023-04-16T05:07:31;96478.31;;;13.09;100.00
10348;BME280;5220;43.192;23.284;2023-04-16T05:09:58;96476.94;;;13.14;100.00
10348;BME280;5220;43.192;23.284;2023-04-16T05:12:24;96474.19;;;13.16;100.00
10348;BME280;5220;43.192;23.284;2023-04-16T05:14:51;96466.47;;;13.24;100.00
10348;BME280;5220;43.192;23.284;2023-04-16T05:17:18;96475.78;;;13.36;100.00
10348;BME280;5220;43.192;23.284;2023-04-16T05:19:44;96475.09;;;13.43;100.00
10348;BME280;5220;43.192;23.284;2023-04-16T05:22:12;96480.59;;;13.50;100.00
10348;BME280;5220;43.192;23.284;2023-04-16T05:24:43;96469.03;;;13.53;100.00
10348;BME280;5220;43.192;23.284;2023-04-16T05:27:09;96482.19;;;13.61;100.00
10348;BME280;5220;43.192;23.284;2023-04-16T05:29:36;96489.09;;;13.62;100.00
10348;BME280;5220;43.192;23.284;2023-04-16T05:32:03;96483.72;;;13.63;100.00
10348;BME280;5220;43.192;23.284;2023-04-16T05:34:29;96490.47;;;13.66;100.00
10348;BME280;5220;43.192;23.284;2023-04-16T05:36:56;96489.50;;;13.67;100.00
10348;BME280;5220;43.192;23.284;2023-04-16T05:39:24;96496.22;;;13.69;100.00
10348;BME280;5220;43.192;23.284;2023-04-16T05:41:51;96492.63;;;13.70;100.00
10348;BME280;5220;43.192;23.284;2023-04-16T05:44:18;96489.88;;;13.72;100.00
10348;BME280;5220;43.192;23.284;2023-04-16T05:46:44;96485.63;;;13.71;100.00
10348;BME280;5220;43.192;23.284;2023-04-16T05:49:11;96484.22;;;13.76;100.00
10348;BME280;5220;43.192;23.284;2023-04-16T05:51:38;96477.91;;;13.79;100.00
10348;BME280;5220;43.192;23.284;2023-04-16T05:54:04;96477.47;;;13.74;100.00
10348;BME280;5220;43.192;23.284;2023-04-16T05:56:32;96484.91;;;13.32;100.00
10348;BME280;5220;43.192;23.284;2023-04-16T05:58:59;96476.47;;;13.57;100.00
10348;BME280;5220;43.192;23.284;2023-04-16T06:01:26;96476.69;;;13.64;100.00
10348;BME280;5220;43.192;23.284;2023-04-16T06:03:53;96474.84;;;13.83;100.00
10348;BME280;5220;43.192;23.284;2023-04-16T06:06:19;96478.38;;;13.92;100.00
10348;BME280;5220;43.192;23.284;2023-04-16T06:08:46;96470.06;;;14.06;100.00
10348;BME280;5220;43.192;23.284;2023-04-16T06:11:13;96469.88;;;14.17;100.00
10348;BME280;5220;43.192;23.284;2023-04-16T06:13:41;96471.47;;;14.28;100.00
10348;BME280;5220;43.192;23.284;2023-04-16T06:16:07;96464.59;;;14.27;100.00
10348;BME280;5220;43.192;23.284;2023-04-16T06:18:34;96460.44;;;14.34;100.00
10348;BME280;5220;43.192;23.284;2023-04-16T06:21:01;96472.34;;;14.46;100.00
10348;BME280;5220;43.192;23.284;2023-04-16T06:23:28;96465.94;;;14.58;100.00
10348;BME280;5220;43.192;23.284;2023-04-16T06:25:55;96463.13;;;14.69;100.00
10348;BME280;5220;43.192;23.284;2023-04-16T06:28:22;96465.13;;;14.75;100.00
10348;BME280;5220;43.192;23.284;2023-04-16T06:30:50;96460.19;;;14.90;100.00
10348;BME280;5220;43.192;23.284;2023-04-16T06:33:16;96467.50;;;15.04;100.00
10348;BME280;5220;43.192;23.284;2023-04-16T06:35:43;96461.25;;;15.23;98.43
10348;BME280;5220;43.192;23.284;2023-04-16T06:38:10;96465.34;;;15.43;98.47
10348;BME280;5220;43.192;23.284;2023-04-16T06:40:36;96460.94;;;15.43;87.72
10348;BME280;5220;43.192;23.284;2023-04-16T06:43:03;96458.09;;;15.54;83.64
10348;BME280;5220;43.192;23.284;2023-04-16T06:45:30;96452.63;;;15.74;84.44
10348;BME280;5220;43.192;23.284;2023-04-16T06:47:58;96455.16;;;15.91;82.00
10348;BME280;5220;43.192;23.284;2023-04-16T06:50:26;96454.06;;;16.02;78.33
10348;BME280;5220;43.192;23.284;2023-04-16T06:52:53;96456.25;;;16.14;75.94
10348;BME280;5220;43.192;23.284;2023-04-16T06:55:19;96461.72;;;16.21;76.73
10348;BME280;5220;43.192;23.284;2023-04-16T06:57:46;96456.72;;;16.10;82.69
10348;BME280;5220;43.192;23.284;2023-04-16T07:00:13;96445.78;;;16.23;79.42
10348;BME280;5220;43.192;23.284;2023-04-16T07:02:40;96454.69;;;16.38;74.99
10348;BME280;5220;43.192;23.284;2023-04-16T07:05:08;96458.63;;;16.34;75.46
10348;BME280;5220;43.192;23.284;2023-04-16T07:07:35;96455.00;;;16.27;74.74
10348;BME280;5220;43.192;23.284;2023-04-16T07:10:01;96461.56;;;16.31;78.30
10348;BME280;5220;43.192;23.284;2023-04-16T07:12:30;96467.03;;;16.03;78.54
10348;BME280;5220;43.192;23.284;2023-04-16T07:14:57;96469.69;;;16.11;77.45
10348;BME280;5220;43.192;23.284;2023-04-16T07:17:24;96462.03;;;16.26;78.35
10348;BME280;5220;43.192;23.284;2023-04-16T07:19:50;96461.84;;;16.11;80.58
10348;BME280;5220;43.192;23.284;2023-04-16T07:22:18;96455.69;;;15.95;76.84
10348;BME280;5220;43.192;23.284;2023-04-16T07:24:45;96462.25;;;15.91;78.06
10348;BME280;5220;43.192;23.284;2023-04-16T07:27:12;96456.38;;;16.05;82.59
10348;BME280;5220;43.192;23.284;2023-04-16T07:29:38;96466.63;;;16.24;83.11
10348;BME280;5220;43.192;23.284;2023-04-16T07:32:06;96457.91;;;16.16;87.56
10348;BME280;5220;43.192;23.284;2023-04-16T07:34:32;96452.03;;;16.22;87.80
10348;BME280;5220;43.192;23.284;2023-04-16T07:36:59;96451.66;;;16.17;87.44
10348;BME280;5220;43.192;23.284;2023-04-16T07:39:28;96454.47;;;16.23;84.34
10348;BME280;5220;43.192;23.284;2023-04-16T07:41:55;96446.22;;;16.52;84.81
10348;BME280;5220;43.192;23.284;2023-04-16T07:44:22;96448.81;;;16.44;84.00
10348;BME280;5220;43.192;23.284;2023-04-16T07:46:49;96451.75;;;15.91;88.20
10348;BME280;5220;43.192;23.284;2023-04-16T07:49:15;96436.91;;;16.16;90.53
10348;BME280;5220;43.192;23.284;2023-04-16T07:51:42;96439.50;;;16.07;89.25
10348;BME280;5220;43.192;23.284;2023-04-16T07:54:09;96455.84;;;15.93;93.00
10348;BME280;5220;43.192;23.284;2023-04-16T07:56:37;96456.59;;;15.52;94.54
10348;BME280;5220;43.192;23.284;2023-04-16T07:59:03;96452.34;;;15.85;94.48
10348;BME280;5220;43.192;23.284;2023-04-16T08:01:31;96461.03;;;15.85;92.08
10348;BME280;5220;43.192;23.284;2023-04-16T08:03:58;96453.91;;;15.70;94.62
10348;BME280;5220;43.192;23.284;2023-04-16T08:06:24;96459.53;;;15.49;95.69
10348;BME280;5220;43.192;23.284;2023-04-16T08:08:52;96452.47;;;15.32;97.25
10348;BME280;5220;43.192;23.284;2023-04-16T08:11:18;96457.19;;;15.46;98.49
10348;BME280;5220;43.192;23.284;2023-04-16T08:13:46;96456.63;;;15.60;96.91
10348;BME280;5220;43.192;23.284;2023-04-16T08:16:13;96451.00;;;16.06;97.48
10348;BME280;5220;43.192;23.284;2023-04-16T08:18:40;96446.47;;;16.33;91.27
10348;BME280;5220;43.192;23.284;2023-04-16T08:21:07;96444.47;;;16.19;92.27
10348;BME280;5220;43.192;23.284;2023-04-16T08:23:34;96444.22;;;16.54;87.65
10348;BME280;5220;43.192;23.284;2023-04-16T08:26:00;96445.19;;;16.45;90.43
10348;BME280;5220;43.192;23.284;2023-04-16T08:28:28;96441.88;;;16.35;84.42
10348;BME280;5220;43.192;23.284;2023-04-16T08:30:56;96441.16;;;16.66;87.92
10348;BME280;5220;43.192;23.284;2023-04-16T08:33:22;96441.84;;;16.85;81.57
10348;BME280;5220;43.192;23.284;2023-04-16T08:35:49;96439.06;;;17.10;76.23
10348;BME280;5220;43.192;23.284;2023-04-16T08:38:16;96440.06;;;17.01;72.45
10348;BME280;5220;43.192;23.284;2023-04-16T08:40:43;96449.25;;;17.13;71.68
10348;BME280;5220;43.192;23.284;2023-04-16T08:43:11;96456.00;;;17.40;68.95
10348;BME280;5220;43.192;23.284;2023-04-16T08:45:40;96452.38;;;17.33;68.36
10348;BME280;5220;43.192;23.284;2023-04-16T08:48:10;96451.84;;;17.54;66.17
10348;BME280;5220;43.192;23.284;2023-04-16T08:50:37;96457.75;;;17.72;66.05
10348;BME280;5220;43.192;23.284;2023-04-16T08:53:10;96455.44;;;17.53;67.40
10348;BME280;5220;43.192;23.284;2023-04-16T08:55:44;96456.94;;;17.80;64.85
10348;BME280;5220;43.192;23.284;2023-04-16T08:58:13;96459.38;;;17.89;65.77
10348;BME280;5220;43.192;23.284;2023-04-16T09:00:40;96450.88;;;17.71;68.61
10348;BME280;5220;43.192;23.284;2023-04-16T09:03:12;96459.00;;;18.00;68.10
10348;BME280;5220;43.192;23.284;2023-04-16T09:05:38;96466.31;;;17.66;68.28
10348;BME280;5220;43.192;23.284;2023-04-16T09:08:05;96462.41;;;17.62;68.44
10348;BME280;5220;43.192;23.284;2023-04-16T09:10:33;96452.44;;;17.96;70.20
10348;BME280;5220;43.192;23.284;2023-04-16T09:13:00;96459.47;;;18.12;66.63
10348;BME280;5220;43.192;23.284;2023-04-16T09:15:26;96461.00;;;17.98;68.69
10348;BME280;5220;43.192;23.284;2023-04-16T09:17:54;96454.84;;;17.43;69.77
10348;BME280;5220;43.192;23.284;2023-04-16T09:20:23;96467.16;;;17.58;74.05
10348;BME280;5220;43.192;23.284;2023-04-16T09:22:50;96457.41;;;17.75;69.44
10348;BME280;5220;43.192;23.284;2023-04-16T09:25:19;96461.44;;;18.10;68.28
10348;BME280;5220;43.192;23.284;2023-04-16T09:27:48;96457.97;;;18.48;80.31
10348;BME280;5220;43.192;23.284;2023-04-16T09:30:19;96457.78;;;18.58;65.49
10348;BME280;5220;43.192;23.284;2023-04-16T09:33:15;96453.75;;;18.31;65.56
10348;BME280;5220;43.192;23.284;2023-04-16T09:35:45;96459.69;;;18.33;64.62
10348;BME280;5220;43.192;23.284;2023-04-16T09:38:12;96459.56;;;18.26;64.88
10348;BME280;5220;43.192;23.284;2023-04-16T09:40:38;96460.47;;;18.42;63.71
10348;BME280;5220;43.192;23.284;2023-04-16T09:43:09;96465.50;;;18.20;64.79
10348;BME280;5220;43.192;23.284;2023-04-16T09:45:47;96465.13;;;17.93;65.78
10348;BME280;5220;43.192;23.284;2023-04-16T09:48:15;96463.84;;;18.27;63.67
10348;BME280;5220;43.192;23.284;2023-04-16T09:50:53;96454.09;;;18.36;66.03
10348;BME280;5220;43.192;23.284;2023-04-16T09:53:23;96458.78;;;18.57;66.48
10348;BME280;5220;43.192;23.284;2023-04-16T09:55:50;96445.53;;;18.96;62.57
10348;BME280;5220;43.192;23.284;2023-04-16T09:58:17;96455.47;;;18.86;64.36
10348;BME280;5220;43.192;23.284;2023-04-16T10:00:44;96452.72;;;19.02;63.39
10348;BME280;5220;43.192;23.284;2023-04-16T10:03:11;96449.25;;;19.24;59.75
10348;BME280;5220;43.192;23.284;2023-04-16T10:05:39;96446.19;;;19.35;59.24
10348;BME280;5220;43.192;23.284;2023-04-16T10:08:11;96443.34;;;18.99;61.33
10348;BME280;5220;43.192;23.284;2023-04-16T10:10:38;96455.88;;;18.97;59.45
10348;BME280;5220;43.192;23.284;2023-04-16T10:13:05;96448.00;;;19.34;61.92
10348;BME280;5220;43.192;23.284;2023-04-16T10:15:32;96448.13;;;19.41;59.71
10348;BME280;5220;43.192;23.284;2023-04-16T10:17:59;96441.44;;;19.53;58.72
10348;BME280;5220;43.192;23.284;2023-04-16T10:20:26;96441.72;;;19.58;57.30
10348;BME280;5220;43.192;23.284;2023-04-16T10:22:54;96444.00;;;19.24;58.82
10348;BME280;5220;43.192;23.284;2023-04-16T10:25:22;96438.91;;;19.37;58.79
10348;BME280;5220;43.192;23.284;2023-04-16T10:27:49;96443.16;;;19.23;59.68
10348;BME280;5220;43.192;23.284;2023-04-16T10:30:17;96443.66;;;19.04;58.42
10348;BME280;5220;43.192;23.284;2023-04-16T10:32:44;96441.63;;;18.61;60.27
10348;BME280;5220;43.192;23.284;2023-04-16T10:35:14;96443.06;;;18.33;61.84
10348;BME280;5220;43.192;23.284;2023-04-16T10:37:41;96437.16;;;18.31;60.76
10348;BME280;5220;43.192;23.284;2023-04-16T10:40:23;96442.78;;;18.27;65.73
10348;BME280;5220;43.192;23.284;2023-04-16T10:42:54;96449.50;;;18.30;66.36
10348;BME280;5220;43.192;23.284;2023-04-16T10:45:25;96451.44;;;17.97;66.91
10348;BME280;5220;43.192;23.284;2023-04-16T10:47:54;96452.09;;;17.99;68.08
10348;BME280;5220;43.192;23.284;2023-04-16T10:50:21;96441.19;;;18.10;67.73
10348;BME280;5220;43.192;23.284;2023-04-16T10:52:48;96444.59;;;17.80;74.11
10348;BME280;5220;43.192;23.284;2023-04-16T10:55:16;96448.66;;;17.91;69.88
10348;BME280;5220;43.192;23.284;2023-04-16T10:57:48;96449.66;;;17.90;70.22
10348;BME280;5220;43.192;23.284;2023-04-16T11:00:21;96448.03;;;17.89;70.92
10348;BME280;5220;43.192;23.284;2023-04-16T11:02:51;96445.72;;;18.24;69.62
10348;BME280;5220;43.192;23.284;2023-04-16T11:05:21;96453.91;;;17.99;73.36
10348;BME280;5220;43.192;23.284;2023-04-16T11:07:48;96457.50;;;18.06;76.42
10348;BME280;5220;43.192;23.284;2023-04-16T11:10:14;96457.41;;;17.83;75.44
10348;BME280;5220;43.192;23.284;2023-04-16T11:12:45;96466.22;;;18.06;73.95
10348;BME280;5220;43.192;23.284;2023-04-16T11:15:14;96468.34;;;18.11;71.18
10348;BME280;5220;43.192;23.284;2023-04-16T11:17:42;96462.69;;;18.22;69.81
10348;BME280;5220;43.192;23.284;2023-04-16T11:20:14;96457.72;;;17.88;72.62
10348;BME280;5220;43.192;23.284;2023-04-16T11:22:42;96465.22;;;18.07;72.39
10348;BME280;5220;43.192;23.284;2023-04-16T11:25:09;96455.56;;;18.39;73.21
10348;BME280;5220;43.192;23.284;2023-04-16T11:27:36;96458.41;;;17.82;71.38
10348;BME280;5220;43.192;23.284;2023-04-16T11:30:06;96462.34;;;18.25;69.55
10348;BME280;5220;43.192;23.284;2023-04-16T11:32:35;96454.38;;;18.49;66.40
10348;BME280;5220;43.192;23.284;2023-04-16T11:35:04;96458.25;;;18.31;67.85
10348;BME280;5220;43.192;23.284;2023-04-16T11:37:38;96456.09;;;18.26;67.55
10348;BME280;5220;43.192;23.284;2023-04-16T11:40:06;96455.34;;;18.09;70.15
10348;BME280;5220;43.192;23.284;2023-04-16T11:42:34;96450.91;;;18.10;71.66
10348;BME280;5220;43.192;23.284;2023-04-16T11:45:04;96447.19;;;17.88;71.01
10348;BME280;5220;43.192;23.284;2023-04-16T11:47:41;96446.56;;;17.78;73.75
10348;BME280;5220;43.192;23.284;2023-04-16T11:50:16;96446.22;;;17.89;77.87
10348;BME280;5220;43.192;23.284;2023-04-16T11:52:43;96445.69;;;18.02;75.19
10348;BME280;5220;43.192;23.284;2023-04-16T11:55:09;96447.19;;;17.96;78.48
10348;BME280;5220;43.192;23.284;2023-04-16T11:57:36;96450.31;;;17.92;78.04
10348;BME280;5220;43.192;23.284;2023-04-16T12:00:06;96452.16;;;17.75;76.63
10348;BME280;5220;43.192;23.284;2023-04-16T12:02:39;96449.22;;;17.54;80.13
10348;BME280;5220;43.192;23.284;2023-04-16T12:05:24;96442.03;;;17.40;87.94
10348;BME280;5220;43.192;23.284;2023-04-16T12:07:52;96445.47;;;17.64;87.16
10348;BME280;5220;43.192;23.284;2023-04-16T12:10:18;96440.88;;;17.58;89.53
10348;BME280;5220;43.192;23.284;2023-04-16T12:12:45;96446.59;;;17.70;90.93
10348;BME280;5220;43.192;23.284;2023-04-16T12:15:13;96438.31;;;17.81;91.19
10348;BME280;5220;43.192;23.284;2023-04-16T12:17:40;96437.91;;;17.61;85.37
10348;BME280;5220;43.192;23.284;2023-04-16T12:20:08;96439.69;;;17.69;82.76
10348;BME280;5220;43.192;23.284;2023-04-16T12:22:36;96430.44;;;17.89;80.26
10348;BME280;5220;43.192;23.284;2023-04-16T12:25:05;96422.91;;;18.17;78.59
10348;BME280;5220;43.192;23.284;2023-04-16T12:27:42;96425.50;;;18.56;77.07
10348;BME280;5220;43.192;23.284;2023-04-16T12:30:13;96415.94;;;18.86;70.73
10348;BME280;5220;43.192;23.284;2023-04-16T12:32:40;96413.44;;;18.92;69.12
10348;BME280;5220;43.192;23.284;2023-04-16T12:35:08;96407.19;;;19.08;71.45
10348;BME280;5220;43.192;23.284;2023-04-16T12:37:34;96403.41;;;19.25;68.24
10348;BME280;5220;43.192;23.284;2023-04-16T12:40:01;96394.84;;;19.46;65.00
10348;BME280;5220;43.192;23.284;2023-04-16T12:42:30;96398.19;;;19.02;65.30
10348;BME280;5220;43.192;23.284;2023-04-16T12:45:00;96398.72;;;18.52;69.08
10348;BME280;5220;43.192;23.284;2023-04-16T12:47:29;96396.53;;;18.56;70.87
10348;BME280;5220;43.192;23.284;2023-04-16T12:49:56;96396.25;;;18.51;74.64
10348;BME280;5220;43.192;23.284;2023-04-16T12:52:23;96397.06;;;18.51;68.65
10348;BME280;5220;43.192;23.284;2023-04-16T12:54:50;96388.59;;;18.64;70.00
10348;BME280;5220;43.192;23.284;2023-04-16T12:57:17;96393.31;;;18.68;70.43